Time;durP1;ratioP1;P1;durP2;ratioP2;P2;SDS_P1;SDS_P2;PMS_P1;PMS_P2;Temp;Humidity;BMP_temperature;BMP_pressure;BME280_temperature;BME280_humidity;BME280_pressure;Samples;Min_cycle;Max_cycle;Signal;HPM_P1;HPM_P2
2022/06/16 00:02:00;;;;;;;3.97;3.57;;;15.60;39.30;;;15.52;60.16;101159.09;5010105;28;20834;-72
2022/06/16 00:04:30;;;;;;;5.47;3.97;;;15.50;41.20;;;15.53;60.18;101149.88;5010312;28;20449;-70
2022/06/16 00:06:59;;;;;;;4.00;3.57;;;15.50;42.90;;;15.50;60.17;101140.19;5012333;28;20934;-71
2022/06/16 00:09:28;;;;;;;6.13;4.20;;;15.40;44.20;;;15.33;60.66;101138.31;5013690;28;21020;-71
2022/06/16 00:11:57;;;;;;;7.57;3.60;;;15.40;46.30;;;15.39;60.54;101143.72;5010381;28;20591;-69
2022/06/16 00:14:29;;;;;;;3.43;3.13;;;15.30;48.00;;;15.30;60.92;101134.16;5010302;28;20448;-70
2022/06/16 00:16:59;;;;;;;4.27;3.23;;;15.20;50.90;;;15.14;61.46;101143.78;5010567;28;20436;-71
2022/06/16 00:19:28;;;;;;;4.90;4.13;;;15.10;54.70;;;15.03;61.65;101139.06;5014063;28;20811;-71
2022/06/16 00:21:57;;;;;;;6.07;3.20;;;15.00;58.00;;;15.07;61.82;101128.53;5016197;28;20955;-71
2022/06/16 00:24:27;;;;;;;3.20;2.90;;;15.00;61.50;;;15.14;61.59;101127.44;5020787;28;20541;-71
2022/06/16 00:26:57;;;;;;;3.97;3.60;;;15.00;62.40;;;15.06;61.75;101127.69;5016594;28;20484;-71
2022/06/16 00:29:29;;;;;;;4.93;2.93;;;15.00;64.10;;;15.00;61.99;101134.06;5017364;28;20444;-72
2022/06/16 00:31:58;;;;;;;3.10;2.60;;;14.90;67.20;;;14.94;62.25;101145.88;5051906;23;20467;31
2022/06/16 00:34:28;;;;;;;2.93;2.63;;;14.90;70.30;;;14.97;62.30;101128.22;5034907;28;20513;-72
2022/06/16 00:36:57;;;;;;;4.63;3.17;;;14.90;73.60;;;14.86;62.64;101129.81;5018453;28;20482;-72
2022/06/16 00:39:26;;;;;;;4.37;3.10;;;14.80;79.10;;;14.84;62.88;101120.19;5036177;28;20428;-73
2022/06/16 00:42:06;;;;;;;3.80;3.27;;;14.80;82.90;;;14.83;63.22;101111.19;5036313;28;20436;-72
2022/06/16 00:44:44;;;;;;;3.23;2.97;;;14.70;87.50;;;14.82;63.29;101114.94;5018224;28;20578;-73
2022/06/16 00:47:13;;;;;;;4.00;3.70;;;14.80;89.30;;;14.73;63.52;101113.56;5047425;22;20495;-73
2022/06/16 00:49:45;;;;;;;3.80;3.50;;;14.70;90.40;;;14.54;64.29;101114.59;4993693;28;20445;-72
2022/06/16 00:52:19;;;;;;;4.03;2.93;;;14.60;93.40;;;14.56;64.76;101109.78;5013571;28;20472;-74
2022/06/16 00:54:56;;;;;;;3.73;3.40;;;14.50;95.90;;;14.56;64.90;101107.06;5015140;28;20499;-72
2022/06/16 00:57:34;;;;;;;4.10;3.40;;;14.50;96.60;;;14.50;65.44;101110.66;4989670;28;20573;-71
2022/06/16 01:00:13;;;;;;;4.73;3.33;;;14.50;98.40;;;14.39;66.00;101114.94;4992977;28;20449;-71
2022/06/16 01:02:44;;;;;;;2.87;2.60;;;14.40;99.90;;;14.45;66.10;101110.50;4993571;28;20439;-71
2022/06/16 01:05:13;;;;;;;3.80;2.60;;;14.40;99.90;;;14.47;65.97;101111.13;4991501;28;20449;-72
2022/06/16 01:07:46;;;;;;;7.23;5.00;;;14.40;99.90;;;14.50;66.01;101110.66;4985707;28;20803;-72
2022/06/16 01:10:18;;;;;;;4.07;3.00;;;14.40;99.90;;;14.54;66.27;101106.44;4994491;28;20438;-69
2022/06/16 01:16:19;;;;;;;3.23;2.93;;;14.40;99.90;;;14.34;67.15;101107.41;4977309;28;20966;-72
2022/06/16 01:19:05;;;;;;;6.47;3.57;;;14.30;99.90;;;14.30;67.54;101106.19;4994883;28;20416;-73
2022/06/16 01:21:46;;;;;;;4.40;3.70;;;14.20;99.90;;;14.30;67.57;101106.19;4991776;28;20441;-73
2022/06/16 01:24:54;;;;;;;4.53;3.97;;;14.20;99.90;;;14.31;67.73;101107.84;5000170;28;20830;-73
2022/06/16 01:28:06;;;;;;;4.47;3.60;;;14.20;99.90;;;14.21;68.15;101104.78;4998732;28;20480;-72
2022/06/16 01:30:49;;;;;;;4.20;3.57;;;14.10;99.90;;;14.26;68.04;101110.41;4990471;28;20465;-71
2022/06/16 01:33:31;;;;;;;7.77;4.77;;;14.20;99.90;;;14.08;68.60;101107.59;4994735;28;20446;-74
2022/06/16 01:36:11;;;;;;;5.13;4.30;;;14.10;99.90;;;14.06;69.01;101117.88;4988644;28;20446;-73
2022/06/16 01:38:52;;;;;;;4.60;3.90;;;14.00;99.90;;;14.05;69.20;101113.47;5007569;28;20525;-72
2022/06/16 01:41:27;;;;;;;7.77;3.77;;;14.00;99.90;;;14.07;69.19;101116.81;5003179;28;20462;-75
2022/06/16 01:44:10;;;;;;;8.90;3.90;;;14.00;99.90;;;13.98;69.64;101111.88;5004128;28;20442;-72
2022/06/16 01:46:47;;;;;;;4.53;3.83;;;13.90;99.90;;;14.07;69.55;101110.53;4996340;28;20481;-74
2022/06/16 01:49:29;;;;;;;6.80;3.27;;;13.90;99.90;;;14.05;69.65;101108.03;5000466;28;20469;-71
2022/06/16 01:52:08;;;;;;;12.40;4.90;;;13.90;99.90;;;13.99;70.05;101091.78;4981653;28;20446;-72
2022/06/16 01:54:43;;;;;;;8.37;5.00;;;13.90;99.90;;;13.98;70.05;101112.69;4985841;28;20971;-73
2022/06/16 01:57:25;;;;;;;4.23;3.83;;;13.90;99.90;;;14.04;69.79;101106.34;4970040;28;20962;-73
2022/06/16 02:00:02;;;;;;;4.73;3.63;;;13.90;99.90;;;13.94;70.19;101098.69;4973813;28;20449;-73
2022/06/16 02:02:38;;;;;;;5.87;4.50;;;13.90;99.90;;;13.94;70.39;101111.47;4972825;28;20484;-73
2022/06/16 02:05:17;;;;;;;5.10;3.77;;;13.80;99.90;;;13.87;70.67;101106.06;4963125;28;20452;-73
2022/06/16 02:08:00;;;;;;;4.70;3.67;;;13.80;99.90;;;13.93;70.43;101109.78;4974168;28;20474;-73
2022/06/16 02:10:34;;;;;;;4.33;4.03;;;13.90;99.90;;;13.90;70.73;101110.22;4975708;28;20890;-72
2022/06/16 02:13:09;;;;;;;5.53;4.00;;;13.80;99.90;;;13.80;71.12;101105.25;4971569;28;20458;-71
2022/06/16 02:15:56;;;;;;;8.57;3.77;;;13.80;99.90;;;13.87;70.80;101100.63;4963408;28;20542;-73
2022/06/16 02:18:35;;;;;;;3.87;3.53;;;13.80;99.90;;;13.85;70.99;101097.28;4968343;28;20525;-74
2022/06/16 02:21:14;;;;;;;5.60;3.90;;;13.80;99.90;;;13.72;71.42;101094.63;4972515;28;20948;-73
2022/06/16 02:23:45;;;;;;;5.73;3.90;;;13.70;99.90;;;13.66;71.91;101098.22;4972350;28;20517;-72
2022/06/16 02:26:15;;;;;;;5.23;3.60;;;13.60;99.90;;;13.63;71.91;101098.66;4966420;28;20497;-72
2022/06/16 02:28:51;;;;;;;4.50;4.10;;;13.60;99.90;;;13.77;71.40;101100.25;4972815;28;20482;-73
2022/06/16 02:31:47;;;;;;;6.13;3.77;;;13.70;99.90;;;13.73;71.65;101099.03;4967849;28;21021;-73
2022/06/16 02:34:32;;;;;;;5.60;3.80;;;13.70;99.90;;;13.68;71.94;101090.69;4971498;28;20431;-74
2022/06/16 02:37:34;;;;;;;4.33;3.93;;;13.70;99.90;;;13.66;72.06;101091.94;4970951;28;20474;-70
2022/06/16 02:40:31;;;;;;;8.97;4.30;;;13.60;99.90;;;13.75;71.72;101085.19;4971115;28;20449;-73
2022/06/16 02:43:23;;;;;;;5.20;4.00;;;13.60;99.90;;;13.85;71.46;101096.44;4968767;28;20439;-72
2022/06/16 02:46:05;;;;;;;4.23;3.83;;;13.70;99.90;;;13.82;71.65;101088.72;4970746;28;20443;-73
2022/06/16 02:48:46;;;;;;;4.80;4.23;;;13.70;99.90;;;13.82;71.65;101086.00;4978054;28;20979;-73
2022/06/16 02:51:26;;;;;;;6.30;3.93;;;13.70;99.90;;;13.84;71.57;101079.31;4991922;28;20440;-72
2022/06/16 02:54:09;;;;;;;6.00;4.40;;;13.70;99.90;;;13.78;71.83;101092.94;4990881;28;20441;-74
2022/06/16 02:56:50;;;;;;;5.07;4.40;;;13.70;99.90;;;13.79;71.59;101097.34;4984162;28;20466;-73
2022/06/16 02:59:26;;;;;;;13.60;4.67;;;13.70;99.90;;;13.82;71.64;101091.44;4991053;28;20500;-73
2022/06/16 03:02:03;;;;;;;7.53;3.80;;;13.70;99.90;;;13.74;71.73;101086.28;4995328;28;20439;-72
2022/06/16 03:04:38;;;;;;;4.30;3.60;;;13.70;99.90;;;13.68;72.09;101078.97;4999623;28;20714;-73
2022/06/16 03:07:12;;;;;;;4.33;3.87;;;13.60;99.90;;;13.66;72.14;101081.06;4993299;28;20450;-73
2022/06/16 03:09:42;;;;;;;5.93;5.33;;;13.60;99.90;;;13.60;72.23;101087.41;4996051;28;20893;-74
2022/06/16 03:12:15;;;;;;;6.40;4.93;;;13.60;99.90;;;13.71;72.27;101083.97;4992929;28;20469;-73
2022/06/16 03:14:50;;;;;;;5.20;4.00;;;13.50;99.90;;;13.68;72.25;101084.41;4968836;28;20451;-75
2022/06/16 03:17:26;;;;;;;5.53;4.67;;;13.50;99.90;;;13.73;71.92;101087.31;4987495;28;20974;-72
2022/06/16 03:19:56;;;;;;;5.50;5.00;;;13.60;99.90;;;13.69;72.07;101089.66;4970670;28;20450;-74
2022/06/16 03:22:26;;;;;;;4.03;3.73;;;13.60;99.90;;;13.72;72.20;101091.09;4976336;28;20495;-73
2022/06/16 03:24:57;;;;;;;4.50;3.80;;;13.50;99.90;;;13.77;71.81;101093.97;4972247;28;20456;-73
2022/06/16 03:27:26;;;;;;;7.30;4.47;;;13.60;99.90;;;13.80;71.89;101099.81;4979423;28;20988;-72
2022/06/16 03:29:56;;;;;;;6.30;4.20;;;13.60;99.90;;;13.95;71.41;101094.06;4982803;28;20454;-74
2022/06/16 03:32:26;;;;;;;7.33;5.70;;;13.70;99.90;;;13.95;71.18;101102.22;4977499;28;20481;-74
2022/06/16 03:34:56;;;;;;;5.57;3.97;;;13.70;99.90;;;13.96;71.29;101098.47;4992584;28;20478;-73
2022/06/16 03:37:30;;;;;;;4.07;3.40;;;13.70;99.90;;;13.88;71.31;101099.56;4984536;28;20498;-73
2022/06/16 03:40:03;;;;;;;4.50;3.50;;;13.70;99.90;;;13.97;71.00;101099.31;4976009;28;20454;-73
2022/06/16 03:42:32;;;;;;;5.20;3.43;;;13.70;99.90;;;13.97;71.07;101094.69;4984271;28;20508;-73
2022/06/16 03:45:02;;;;;;;7.40;4.57;;;13.70;99.90;;;14.01;71.12;101098.66;4999291;28;20453;-72
2022/06/16 03:47:32;;;;;;;5.90;4.43;;;13.70;99.90;;;14.28;70.50;101091.94;4986048;28;20477;-73
2022/06/16 03:50:03;;;;;;;6.60;4.43;;;13.80;99.90;;;15.42;66.25;101093.31;4981931;28;20447;-74
2022/06/16 03:52:40;;;;;;;6.70;4.27;;;14.30;99.90;;;15.32;66.08;101093.03;4985286;28;20434;-71
2022/06/16 03:55:10;;;;;;;5.63;4.77;;;14.60;99.90;;;15.21;66.46;101098.19;4990791;28;20548;-72
2022/06/16 03:57:39;;;;;;;8.67;4.70;;;14.60;99.90;;;15.51;65.69;101100.16;5002680;28;20539;-72
2022/06/16 04:00:15;;;;;;;4.67;4.10;;;14.80;99.90;;;15.87;64.64;101091.91;4965507;28;20454;-74
2022/06/16 04:02:47;;;;;;;4.40;4.00;;;15.10;99.90;;;16.95;61.82;101083.38;4973420;28;20447;-72
2022/06/16 04:05:24;;;;;;;9.30;3.90;;;15.50;99.90;;;18.41;56.75;101093.63;4995118;28;20997;-70
2022/06/16 04:08:02;;;;;;;5.27;4.33;;;16.40;90.90;;;19.29;53.97;101089.19;4990817;28;20549;-71
2022/06/16 04:10:32;;;;;;;4.40;4.00;;;17.20;65.30;;;19.02;54.35;101092.72;4993131;28;20451;-71
2022/06/16 04:13:05;;;;;;;5.10;4.23;;;17.60;50.50;;;19.47;52.82;101080.66;4982685;28;20488;-71
2022/06/16 04:15:34;;;;;;;4.60;3.90;;;18.10;42.20;;;19.18;53.81;101088.22;4992051;28;20569;-73
2022/06/16 04:18:07;;;;;;;4.70;4.27;;;17.90;40.10;;;18.48;55.38;101086.09;4977625;28;20513;-71
2022/06/16 04:20:39;;;;;;;4.13;3.40;;;17.50;42.30;;;17.18;58.59;101088.00;4985005;28;20462;-73
2022/06/16 04:23:22;;;;;;;4.80;4.20;;;17.00;46.70;;;16.40;61.36;101096.53;4968838;28;20451;-74
2022/06/16 04:25:53;;;;;;;4.33;4.03;;;16.30;58.50;;;16.16;62.29;101094.84;4975961;28;20466;-73
2022/06/16 04:28:25;;;;;;;6.17;4.60;;;15.90;77.10;;;15.61;63.94;101097.72;4979312;28;20504;-74
2022/06/16 04:30:58;;;;;;;5.03;4.40;;;15.60;90.70;;;15.59;64.39;101100.66;4991992;28;20429;-73
2022/06/16 04:33:31;;;;;;;6.87;3.77;;;15.40;95.20;;;15.54;64.83;101099.72;4986613;28;20431;-74
2022/06/16 04:36:04;;;;;;;4.00;3.70;;;15.20;97.90;;;15.72;64.46;101096.94;4972143;28;20816;-73
2022/06/16 04:38:42;;;;;;;4.53;3.43;;;15.20;99.30;;;17.99;57.94;101101.41;4983656;28;20954;-71
2022/06/16 04:41:14;;;;;;;5.07;4.40;;;16.10;94.00;;;20.18;52.21;101093.25;4983991;28;20443;-73
2022/06/16 04:43:44;;;;;;;5.83;2.63;;;17.40;62.90;;;21.49;48.65;101092.50;5004504;28;20424;-72
2022/06/16 04:46:15;;;;;;;11.43;3.80;;;18.60;41.90;;;21.54;47.80;101107.09;4966561;28;20494;-73
2022/06/16 04:48:46;;;;;;;7.50;3.60;;;19.30;28.80;;;20.36;50.14;101105.81;4954744;28;20455;-74
2022/06/16 04:51:19;;;;;;;3.93;3.53;;;19.20;25.70;;;18.75;53.82;101099.13;4970443;28;20517;-72
2022/06/16 04:53:55;;;;;;;4.60;3.47;;;18.50;27.90;;;19.57;53.02;101107.41;4971773;28;20466;-74
2022/06/16 04:56:54;;;;;;;6.87;3.67;;;18.20;31.20;;;20.52;49.95;101099.34;4902831;28;20986;-70
2022/06/16 04:59:49;;;;;;;4.50;2.90;;;18.70;27.90;;;19.05;53.24;101105.06;4955903;28;21038;-71
2022/06/16 05:02:49;;;;;;;4.30;3.47;;;18.40;28.70;;;18.11;55.51;101106.81;4953996;28;20429;-73
2022/06/16 05:05:43;;;;;;;4.20;3.53;;;17.90;31.20;;;19.20;53.54;101101.69;4960044;28;20425;-72
2022/06/16 05:08:22;;;;;;;5.90;3.70;;;17.90;34.50;;;20.15;50.70;101102.00;4974211;28;20457;-72
2022/06/16 05:11:11;;;;;;;4.17;3.03;;;18.50;29.60;;;20.17;50.61;101102.56;4976277;28;20495;-72
2022/06/16 05:13:56;;;;;;;4.03;3.63;;;18.70;27.10;;;20.61;49.75;101108.75;4951679;28;20425;-73
2022/06/16 05:16:51;;;;;;;10.17;3.20;;;19.00;26.00;;;20.45;50.10;101111.63;4975126;28;20945;-74
2022/06/16 05:19:43;;;;;;;5.60;2.90;;;19.10;24.20;;;20.05;51.02;101115.63;4975505;28;21002;-70
2022/06/16 05:22:25;;;;;;;3.27;2.97;;;19.00;23.80;;;19.20;52.70;101127.22;4957385;28;20421;-70
2022/06/16 05:25:06;;;;;;;3.37;3.03;;;18.70;24.30;;;19.81;52.16;101128.84;4969748;28;20433;-73
2022/06/16 05:27:55;;;;;;;3.20;2.43;;;18.50;26.40;;;21.04;49.10;101118.69;4975185;28;20589;-72
2022/06/16 05:30:41;;;;;;;3.97;2.87;;;18.90;25.00;;;21.58;47.37;101123.94;4969984;28;20542;-73
2022/06/16 05:33:29;;;;;;;3.10;2.80;;;19.40;22.70;;;20.27;50.43;101124.66;4972742;28;20561;-72
2022/06/16 05:36:33;;;;;;;4.87;4.00;;;19.40;22.00;;;20.66;49.84;101125.31;4975104;28;20470;-71
2022/06/16 05:39:14;;;;;;;4.40;3.10;;;19.30;22.70;;;19.39;52.12;101116.78;4971694;28;20849;-74
2022/06/16 05:41:52;;;;;;;4.00;3.07;;;19.10;23.00;;;19.22;53.23;101126.97;4969268;28;20413;-71
2022/06/16 05:44:42;;;;;;;5.97;4.40;;;18.80;25.00;;;18.95;53.85;101121.38;4963571;28;20458;-71
2022/06/16 05:47:30;;;;;;;4.67;3.17;;;18.60;25.90;;;19.16;53.67;101126.09;4968599;28;20459;-73
2022/06/16 05:50:00;;;;;;;4.10;3.27;;;18.60;26.30;;;19.01;53.81;101114.88;4975290;28;21003;-73
2022/06/16 05:52:30;;;;;;;3.60;3.27;;;18.60;25.90;;;18.77;54.58;101122.50;4957974;28;20430;-73
2022/06/16 05:55:13;;;;;;;7.37;3.73;;;18.50;26.30;;;18.62;54.86;101116.75;4968385;28;20442;-74
2022/06/16 05:57:42;;;;;;;3.30;3.00;;;18.40;27.20;;;18.70;54.75;101119.06;4977812;28;20470;-74
2022/06/16 06:00:16;;;;;;;5.00;3.07;;;18.30;28.20;;;18.76;54.32;101128.22;4983451;28;20440;-73
2022/06/16 06:02:58;;;;;;;3.77;3.30;;;18.40;27.90;;;18.77;54.71;101127.13;4981669;28;20437;-72
2022/06/16 06:05:35;;;;;;;4.07;3.37;;;18.40;28.00;;;18.95;54.32;101135.09;4981295;28;20444;-73
2022/06/16 06:16:36;;;;;;;3.30;3.00;;;19.30;25.00;;;20.20;51.10;101128.69;4971057;28;20522;-73
2022/06/16 06:22:03;;;;;;;4.83;2.40;;;19.50;22.80;;;20.12;51.96;101141.00;4972081;28;20938;-72
2022/06/16 06:24:35;;;;;;;6.27;2.90;;;19.60;23.50;;;20.16;50.61;101138.56;4984374;28;20422;-73
2022/06/16 06:27:33;;;;;;;3.13;2.83;;;19.70;21.40;;;19.80;51.65;101140.09;4980000;28;20906;-71
2022/06/16 06:30:09;;;;;;;4.50;3.17;;;19.60;21.60;;;19.78;51.61;101159.56;4955922;28;20590;-71
2022/06/16 06:32:40;;;;;;;4.63;3.23;;;19.50;21.80;;;19.82;51.90;101168.94;4970847;28;20420;-72
2022/06/16 06:35:11;;;;;;;3.13;2.60;;;19.40;22.10;;;19.73;52.07;101173.25;4955829;28;20444;-71
2022/06/16 06:37:40;;;;;;;9.03;2.80;;;19.40;21.90;;;20.00;51.84;101176.00;4967686;28;20480;-73
2022/06/16 06:40:17;;;;;;;3.87;2.97;;;19.50;22.20;;;20.09;51.71;101170.91;4953272;28;20845;-73
2022/06/16 06:42:46;;;;;;;3.93;3.60;;;19.80;21.80;;;19.92;51.69;101171.00;4971678;28;20487;-71
2022/06/16 06:45:16;;;;;;;6.43;3.43;;;19.70;21.30;;;19.61;52.26;101160.72;4973078;28;20464;-71
2022/06/16 06:47:47;;;;;;;3.83;2.73;;;19.50;21.10;;;19.67;52.15;101165.19;5063291;23;20500;-69
2022/06/16 06:50:22;;;;;;;2.90;2.70;;;19.30;21.80;;;20.36;51.36;101167.09;5038065;28;21002;-70
2022/06/16 06:52:52;;;;;;;5.10;2.37;;;19.70;22.10;;;20.61;49.85;101168.41;5031590;28;20434;-69
2022/06/16 06:55:23;;;;;;;3.03;2.30;;;20.00;19.50;;;20.39;50.57;101171.22;5038330;28;20427;-71
2022/06/16 06:57:55;;;;;;;3.20;2.90;;;20.00;19.10;;;20.68;49.47;101169.00;5036171;28;20407;-69
2022/06/16 07:00:27;;;;;;;7.47;2.60;;;20.20;18.80;;;20.59;49.66;101165.09;5027903;28;20440;-71
2022/06/16 07:02:57;;;;;;;5.03;2.50;;;20.20;18.00;;;20.57;50.22;101161.78;5037795;28;20851;-68
2022/06/16 07:05:26;;;;;;;3.30;2.20;;;20.30;18.00;;;20.39;50.70;101172.06;5026540;28;20432;-74
2022/06/16 07:07:58;;;;;;;5.50;2.97;;;20.20;18.20;;;20.44;49.78;101181.44;5030234;28;20502;-72
2022/06/16 07:10:28;;;;;;;3.57;2.80;;;20.30;17.00;;;20.60;49.50;101175.00;5036912;28;20447;-74
2022/06/16 07:12:57;;;;;;;2.30;1.83;;;20.30;17.40;;;20.79;49.24;101179.00;5032452;28;20423;-72
2022/06/16 07:15:27;;;;;;;6.30;3.03;;;20.30;16.60;;;20.80;48.90;101178.75;5034405;28;20421;-72
2022/06/16 07:17:57;;;;;;;3.00;2.00;;;20.50;15.90;;;20.80;48.83;101183.44;5033802;28;20406;-73
2022/06/16 07:20:26;;;;;;;3.13;2.83;;;20.40;15.50;;;21.04;49.07;101183.88;5032881;28;20410;-73
2022/06/16 07:22:55;;;;;;;4.17;2.70;;;20.60;16.10;;;21.63;47.22;101190.88;5027997;28;20437;-73
2022/06/16 07:25:24;;;;;;;5.20;2.60;;;20.80;15.30;;;21.60;48.01;101196.91;5029639;28;20809;-74
2022/06/16 07:27:54;;;;;;;7.30;2.40;;;21.00;14.90;;;21.57;47.39;101202.97;5024475;28;20406;-76
2022/06/16 07:30:23;;;;;;;6.60;2.60;;;21.20;13.80;;;20.89;48.97;101201.09;5029974;28;20453;-74
2022/06/16 07:32:53;;;;;;;2.97;2.17;;;20.80;14.40;;;20.52;49.87;101208.47;5031154;28;20923;-74
2022/06/16 07:35:24;;;;;;;5.00;2.33;;;20.40;14.70;;;20.26;50.28;101207.34;5030700;28;20421;-74
2022/06/16 07:37:54;;;;;;;2.80;2.40;;;20.20;15.50;;;20.49;50.33;101218.06;5029756;28;20411;-74
2022/06/16 07:40:25;;;;;;;4.27;3.20;;;20.20;16.60;;;20.88;48.88;101212.34;5041063;28;20390;-74
2022/06/16 07:42:56;;;;;;;3.67;2.87;;;20.40;15.10;;;21.24;48.33;101217.91;5033027;28;20434;-74
2022/06/16 07:45:26;;;;;;;2.60;2.37;;;20.70;14.60;;;21.58;47.25;101225.81;5012909;28;20438;-74
2022/06/16 07:48:00;;;;;;;2.90;2.30;;;21.00;13.10;;;21.55;46.82;101226.34;5033564;28;20476;-73
2022/06/16 07:50:32;;;;;;;3.60;2.40;;;21.10;12.50;;;21.65;46.63;101212.63;5033936;28;20498;-73
2022/06/16 07:53:01;;;;;;;4.83;2.90;;;21.20;12.20;;;21.57;46.77;101188.38;5037344;28;20913;-74
2022/06/16 07:55:31;;;;;;;2.47;2.10;;;21.20;11.90;;;21.47;46.96;101189.13;5032090;28;20850;-74
2022/06/16 07:58:00;;;;;;;5.93;2.93;;;21.10;11.70;;;21.54;46.69;101194.41;5028680;28;20480;-74
2022/06/16 08:00:34;;;;;;;2.80;2.27;;;21.20;11.50;;;21.67;46.66;101196.69;5030611;28;20526;-72
2022/06/16 08:03:04;;;;;;;3.10;2.60;;;21.30;11.70;;;21.74;46.39;101204.66;5026768;28;20453;-74
2022/06/16 08:05:35;;;;;;;2.83;2.53;;;21.40;10.90;;;21.82;46.45;101202.25;5032080;28;20509;-75
2022/06/16 08:08:04;;;;;;;2.87;2.40;;;21.40;11.20;;;21.64;46.42;101208.22;5042850;28;20387;-75
2022/06/16 08:10:35;;;;;;;2.90;2.10;;;21.40;10.40;;;21.55;47.17;101207.91;5043792;28;20491;-73
2022/06/16 08:13:04;;;;;;;6.17;2.60;;;21.30;10.60;;;22.08;45.80;101206.78;5042042;28;20434;-73
2022/06/16 08:15:34;;;;;;;4.37;2.83;;;21.60;9.90;;;22.37;44.87;101214.56;5050679;28;20403;-73
2022/06/16 08:18:03;;;;;;;7.00;2.47;;;22.00;9.00;;;22.17;46.11;101209.84;5045259;28;21013;-74
2022/06/16 08:20:32;;;;;;;3.13;2.30;;;21.90;9.80;;;22.22;45.69;101207.09;5049382;28;20507;-73
2022/06/16 08:23:02;;;;;;;4.13;2.70;;;21.90;9.30;;;22.44;45.38;101209.63;5046126;28;20523;-74
2022/06/16 08:25:32;;;;;;;2.77;1.97;;;22.10;9.10;;;22.81;44.35;101214.91;5044888;28;20428;-75
2022/06/16 08:28:03;;;;;;;2.83;2.33;;;22.30;7.80;;;22.45;44.98;101214.03;5040537;28;20423;-74
2022/06/16 08:30:33;;;;;;;5.50;2.53;;;22.30;7.30;;;22.45;45.36;101214.88;5030773;28;20493;-74
2022/06/16 08:33:03;;;;;;;2.20;1.97;;;22.30;8.00;;;22.30;45.72;101214.00;5012647;28;20594;-74
2022/06/16 08:35:32;;;;;;;2.67;1.90;;;22.00;8.50;;;22.54;45.42;101217.91;5030615;28;20413;-74
2022/06/16 08:38:03;;;;;;;2.43;2.23;;;22.20;8.40;;;22.73;44.22;101226.50;5030189;28;20471;-74
2022/06/16 08:40:36;;;;;;;3.23;2.20;;;22.40;7.10;;;22.91;43.90;101232.31;5030236;28;20403;-74
2022/06/16 08:43:17;;;;;;;3.10;2.40;;;22.40;6.90;;;23.03;43.86;101233.97;5032696;28;20547;-74
2022/06/16 08:45:54;;;;;;;2.90;2.17;;;22.70;6.30;;;22.88;43.96;101237.56;5033826;28;20443;-74
2022/06/16 08:48:33;;;;;;;4.17;2.40;;;22.70;6.00;;;22.71;44.52;101237.81;5033295;28;20449;-74
2022/06/16 08:51:12;;;;;;;3.20;2.73;;;22.50;5.90;;;22.81;44.27;101246.09;5026244;28;20566;-75
2022/06/16 08:54:19;;;;;;;6.27;2.77;;;22.60;6.10;;;23.25;43.41;101242.78;5015524;28;20837;-74
2022/06/16 08:56:58;;;;;;;2.93;2.43;;;22.80;5.70;;;23.55;42.28;101237.25;5030779;28;20517;-74
2022/06/16 08:59:39;;;;;;;3.40;2.50;;;23.20;4.10;;;23.72;41.88;101243.25;5032483;28;20410;-73
2022/06/16 09:02:18;;;;;;;3.17;2.67;;;23.40;3.40;;;24.28;41.06;101254.13;5026729;28;20469;-73
2022/06/16 09:04:52;;;;;;;5.63;2.40;;;23.70;3.00;;;23.92;41.24;101247.06;5015555;28;20426;-73
2022/06/16 09:07:42;;;;;;;3.50;2.67;;;23.80;1.80;;;23.83;41.89;101246.81;5033207;28;20498;-73
2022/06/16 09:10:27;;;;;;;3.53;2.40;;;23.60;2.40;;;24.32;41.17;101257.13;5032918;28;20943;-73
2022/06/16 09:13:39;;;;;;;3.83;2.67;;;23.80;2.20;;;24.65;40.48;101251.66;5028535;28;20426;-74
2022/06/16 09:16:26;;;;;;;3.20;2.20;;;24.10;1.40;;;24.25;40.54;101254.69;5027471;28;20414;-74
2022/06/16 09:19:51;;;;;;;4.90;2.87;;;24.00;1.00;;;24.19;40.02;101275.19;5037868;28;20405;-74
2022/06/16 09:22:42;;;;;;;3.53;3.23;;;24.10;1.00;;;24.57;39.39;101268.06;5003306;28;20467;-74
2022/06/16 09:25:50;;;;;;;2.47;2.23;;;24.10;1.00;;;24.52;39.41;101268.09;5035446;28;20437;-75
2022/06/16 09:28:28;;;;;;;2.97;2.43;;;24.10;1.00;;;24.93;39.28;101268.69;5021571;28;20460;-75
2022/06/16 09:31:01;;;;;;;2.60;2.40;;;24.40;1.00;;;24.74;39.92;101271.25;5034687;28;20811;-74
2022/06/16 09:33:38;;;;;;;6.07;3.60;;;24.40;1.00;;;24.55;39.96;101262.81;5033897;28;20419;-74
2022/06/16 09:36:17;;;;;;;7.10;2.70;;;24.30;1.00;;;24.56;40.43;101266.41;5033051;28;20811;-74
2022/06/16 09:38:53;;;;;;;4.40;2.73;;;24.30;1.00;;;24.75;40.25;101261.84;5014567;28;20473;-74
2022/06/16 09:44:28;;;;;;;13.43;3.27;;;24.50;1.00;;;24.76;40.10;101270.97;5028317;28;21041;-73
2022/06/16 09:47:05;;;;;;;4.43;3.23;;;24.40;1.00;;;24.60;39.67;101276.59;5031928;28;20447;-73
2022/06/16 09:49:43;;;;;;;6.53;3.00;;;24.40;1.00;;;24.56;39.00;101288.53;5032018;28;20439;-74
2022/06/16 09:52:38;;;;;;;4.70;2.60;;;24.30;1.00;;;24.63;39.45;101284.34;5021020;28;20511;-75
2022/06/16 09:55:16;;;;;;;3.90;2.50;;;24.30;1.00;;;25.01;38.85;101288.25;5029824;28;20429;-74
2022/06/16 09:57:54;;;;;;;4.50;3.10;;;24.50;1.00;;;24.54;39.07;101286.06;5032302;28;20578;-74
2022/06/16 10:00:26;;;;;;;7.73;4.33;;;24.30;1.00;;;24.50;39.26;101282.19;5032904;28;20410;-74
2022/06/16 10:03:02;;;;;;;3.70;2.73;;;24.40;1.00;;;24.92;38.75;101278.09;5003435;28;20562;-74
2022/06/16 10:05:43;;;;;;;6.97;3.13;;;24.50;1.00;;;24.77;38.65;101283.69;5031750;28;20435;-73
2022/06/16 10:08:23;;;;;;;3.00;2.70;;;24.60;1.00;;;24.62;38.75;101274.41;5028399;28;20454;-75
2022/06/16 10:11:04;;;;;;;2.60;2.40;;;24.50;1.00;;;24.31;39.38;101281.19;5008778;28;20444;-75
2022/06/16 10:13:44;;;;;;;3.27;2.60;;;24.30;1.00;;;24.72;38.98;101279.03;5032028;28;20444;-73
2022/06/16 10:16:18;;;;;;;7.70;3.50;;;24.40;1.00;;;25.35;37.96;101282.72;5026699;28;20919;-74
2022/06/16 10:18:50;;;;;;;2.73;2.53;;;24.80;1.00;;;25.21;37.76;101287.28;5031832;28;20454;-74
2022/06/16 10:21:21;;;;;;;2.47;2.27;;;24.90;1.00;;;25.08;37.82;101290.69;5031375;28;20538;-74
2022/06/16 10:23:57;;;;;;;6.77;2.67;;;24.80;1.00;;;24.94;37.74;101293.28;5031265;28;20430;-74
2022/06/16 10:26:26;;;;;;;2.83;2.53;;;24.80;1.00;;;24.84;37.89;101298.84;5031386;28;20526;-74
2022/06/16 10:29:13;;;;;;;8.70;2.73;;;24.60;1.00;;;25.07;37.92;101300.13;5031580;28;20428;-73
2022/06/16 10:31:48;;;;;;;4.30;2.40;;;24.70;1.00;;;24.72;38.19;101300.34;5032182;28;20514;-74
2022/06/16 10:34:28;;;;;;;4.80;2.80;;;24.60;1.00;;;24.30;38.99;101307.22;5033716;28;20431;-75
2022/06/16 10:37:07;;;;;;;2.80;2.60;;;24.20;1.00;;;23.93;39.49;101310.34;5027490;28;20440;-74
2022/06/16 10:39:44;;;;;;;3.20;2.90;;;23.90;1.00;;;24.04;39.34;101305.63;5033506;28;20593;-73
2022/06/16 10:42:20;;;;;;;5.07;2.50;;;23.80;1.00;;;24.60;38.53;101304.28;5031290;28;21096;-73
2022/06/16 10:44:57;;;;;;;3.23;2.50;;;24.10;1.00;;;24.57;38.85;101307.63;5009537;28;20426;-74
2022/06/16 10:47:35;;;;;;;3.60;2.30;;;24.20;1.00;;;24.28;38.91;101306.66;5035272;28;20463;-73
2022/06/16 10:50:09;;;;;;;4.47;2.30;;;24.20;1.00;;;24.21;39.22;101306.13;5033745;28;20469;-73
2022/06/16 10:52:42;;;;;;;4.37;3.97;;;24.00;1.00;;;23.85;39.93;101319.22;5016554;28;20476;-74
2022/06/16 10:55:22;;;;;;;4.83;3.10;;;23.70;1.00;;;24.47;39.21;101309.63;5030901;28;20443;-73
2022/06/16 10:58:02;;;;;;;3.60;2.77;;;24.00;1.00;;;24.36;39.04;101317.13;5030894;28;20458;-72
2022/06/16 11:00:35;;;;;;;4.90;3.10;;;24.00;1.00;;;24.15;39.76;101326.59;5025015;28;20510;-73
2022/06/16 11:03:17;;;;;;;7.63;2.90;;;23.90;1.00;;;24.09;39.65;101324.97;5031144;28;21042;-73
2022/06/16 11:05:55;;;;;;;3.67;3.07;;;23.80;1.00;;;24.33;39.29;101317.72;5030531;28;20406;-73
2022/06/16 11:08:34;;;;;;;3.40;2.47;;;23.90;1.00;;;24.11;39.75;101322.72;5031554;28;20415;-74
2022/06/16 11:11:39;;;;;;;6.13;2.67;;;23.90;1.00;;;24.04;40.21;101327.75;5027775;28;20808;-74
2022/06/16 11:14:15;;;;;;;2.93;2.50;;;23.70;1.00;;;23.80;40.73;101328.38;5014298;28;20526;-74